Time;durP1;ratioP1;P1;durP2;ratioP2;P2;SDS_P1;SDS_P2;PMS_P1;PMS_P2;Temp;Humidity;BMP_temperature;BMP_pressure;BME280_temperature;BME280_humidity;BME280_pressure;Samples;Min_cycle;Max_cycle;Signal;HPM_P1;HPM_P2
2021/12/21 00:00:12;;;;;;;3.07;2.27;;;;;;;5.93;73.48;101820.25;5043708;28;20199;-75
2021/12/21 00:02:39;;;;;;;4.07;2.27;;;;;;;5.36;74.64;101822.09;5027175;28;20693;-74
2021/12/21 00:05:04;;;;;;;2.70;2.10;;;;;;;4.60;77.66;101822.28;5045049;28;20178;-75
2021/12/21 00:07:30;;;;;;;2.70;2.30;;;;;;;4.93;76.89;101828.03;5028908;28;20567;-74
2021/12/21 00:09:55;;;;;;;3.53;2.23;;;;;;;5.11;76.29;101827.75;5029530;28;20187;-75
2021/12/21 00:12:24;;;;;;;2.67;2.40;;;;;;;4.88;76.38;101814.88;5028716;28;20206;-74
2021/12/21 00:15:03;;;;;;;3.60;2.20;;;;;;;4.46;77.09;101816.31;5044134;28;20181;-75
2021/12/21 00:17:54;;;;;;;4.27;2.30;;;;;;;5.07;76.22;101828.69;5031987;28;20164;-75
2021/12/21 00:25:21;;;;;;;2.93;2.17;;;;;;;5.47;76.04;101841.34;5045672;28;20516;-75
2021/12/21 00:27:48;;;;;;;2.83;1.90;;;;;;;5.50;74.74;101825.41;5044195;28;20207;-75
2021/12/21 00:30:13;;;;;;;3.03;2.30;;;;;;;5.54;74.80;101832.38;5023185;28;20187;-74
2021/12/21 00:32:39;;;;;;;3.10;1.77;;;;;;;5.38;74.75;101818.53;5021771;28;20640;-74
2021/12/21 00:35:05;;;;;;;2.90;1.80;;;;;;;5.03;75.38;101819.94;5038184;28;20183;-75
2021/12/21 00:37:30;;;;;;;3.13;1.80;;;;;;;4.74;77.37;101829.16;5021520;28;20172;-74
2021/12/21 00:39:56;;;;;;;1.60;1.50;;;;;;;4.50;78.30;101833.00;5060151;22;20231;-68
2021/12/21 00:42:22;;;;;;;5.33;2.10;;;;;;;4.26;77.77;101818.28;5037380;28;20176;-68
2021/12/21 00:44:47;;;;;;;2.80;1.93;;;;;;;4.37;77.99;101816.41;5054805;28;20233;-68
2021/12/21 00:47:15;;;;;;;2.30;1.83;;;;;;;4.62;78.33;101860.16;5054580;28;20671;-68
2021/12/21 00:49:45;;;;;;;4.80;2.33;;;;;;;4.19;77.90;101821.91;5038969;28;20230;-68
2021/12/21 00:52:10;;;;;;;5.10;2.40;;;;;;;5.10;77.25;101854.25;5043406;28;20223;-68
2021/12/21 00:54:35;;;;;;;3.97;2.57;;;;;;;4.59;77.74;101846.97;5034935;28;20180;-68
2021/12/21 00:57:04;;;;;;;5.17;2.77;;;;;;;4.82;77.24;101836.09;5043272;28;20172;-68
2021/12/21 00:59:29;;;;;;;5.07;2.83;;;;;;;4.50;78.46;101854.16;5048246;28;20194;-68
2021/12/21 01:01:54;;;;;;;3.30;3.00;;;;;;;5.18;77.04;101841.78;5048175;28;20277;-68
2021/12/21 01:04:24;;;;;;;2.90;2.63;;;;;;;5.03;76.89;101837.59;5046980;28;20167;-68
2021/12/21 01:07:05;;;;;;;4.10;3.30;;;;;;;4.39;76.67;101802.25;5046105;28;20184;-68
2021/12/21 01:12:04;;;;;;;6.87;4.13;;;;;;;4.28;79.56;101864.06;5046039;28;20196;-68
2021/12/21 01:19:50;;;;;;;5.87;4.00;;;;;;;5.27;75.96;101824.00;5029881;28;20244;-67
2021/12/21 01:22:30;;;;;;;5.33;4.20;;;;;;;5.47;74.82;101820.16;5018828;28;20172;-67
2021/12/21 01:25:16;;;;;;;5.70;4.07;;;;;;;5.25;75.20;101824.94;5034290;28;20173;-68
2021/12/21 01:27:58;;;;;;;4.33;3.80;;;;;;;4.58;77.09;101826.72;5034364;28;20210;-68
2021/12/21 01:33:04;;;;;;;5.33;4.43;;;;;;;4.37;77.75;101821.69;5034567;28;20214;-67
2021/12/21 01:35:37;;;;;;;4.87;4.37;;;;;;;4.28;79.30;101833.25;5034144;28;20244;-68
2021/12/21 01:38:11;;;;;;;5.23;4.40;;;;;;;4.89;77.81;101826.34;5017793;28;20161;-67
2021/12/21 01:40:45;;;;;;;13.27;4.53;;;;;;;4.24;78.01;101809.50;5017193;28;20291;-68
2021/12/21 01:43:21;;;;;;;7.47;5.40;;;;;;;4.27;79.05;101830.63;5017524;28;20163;-68
2021/12/21 01:51:16;;;;;;;6.60;5.20;;;;;;;4.99;77.68;101833.25;5033741;28;20207;-68
2021/12/21 01:53:42;;;;;;;5.97;5.20;;;;;;;5.43;76.07;101821.09;5034034;28;20184;-68
2021/12/21 01:56:08;;;;;;;7.07;5.27;;;;;;;5.26;75.69;101816.97;5033472;28;20191;-67
2021/12/21 01:58:39;;;;;;;6.67;4.90;;;;;;;5.49;75.49;101827.16;5033843;28;20544;-67
2021/12/21 02:01:06;;;;;;;8.30;5.47;;;;;;;5.37;75.27;101822.06;5033677;28;20283;-67
2021/12/21 02:03:32;;;;;;;5.30;4.47;;;;;;;5.09;75.32;101808.38;5033513;28;20215;-67
2021/12/21 02:05:57;;;;;;;8.33;5.23;;;;;;;5.21;75.32;101824.09;5033287;28;20648;-68
2021/12/21 02:08:22;;;;;;;6.33;5.43;;;;;;;5.36;74.63;101814.16;5015393;28;20664;-67
2021/12/21 02:10:48;;;;;;;5.87;4.50;;;;;;;5.32;75.19;101808.91;5033533;28;20211;-66
2021/12/21 02:13:13;;;;;;;6.53;5.07;;;;;;;5.06;75.01;101799.63;5015991;28;20180;-68
2021/12/21 02:15:38;;;;;;;6.47;4.90;;;;;;;5.09;76.09;101818.97;5033175;28;20205;-67
2021/12/21 02:23:07;;;;;;;5.50;4.87;;;;;;;4.96;76.19;101839.44;5033366;28;20636;-66
2021/12/21 02:28:32;;;;;;;6.57;5.27;;;;;;;5.05;75.73;101825.22;5033403;28;20200;-67
2021/12/21 02:30:58;;;;;;;6.10;4.90;;;;;;;5.16;76.07;101836.50;5019332;28;20208;-68
2021/12/21 02:33:27;;;;;;;8.33;5.30;;;;;;;4.88;76.04;101820.16;5015964;28;20233;-68
2021/12/21 02:35:57;;;;;;;7.67;5.70;;;;;;;5.29;75.83;101830.16;5033153;28;20261;-67
2021/12/21 02:38:23;;;;;;;7.17;5.57;;;;;;;4.96;76.23;101825.34;5033272;28;20214;-68
2021/12/21 02:40:49;;;;;;;6.77;5.60;;;;;;;5.20;76.68;101843.53;5032853;28;20262;-67
2021/12/21 02:43:14;;;;;;;8.77;5.50;;;;;;;5.43;75.34;101819.31;5015225;28;20231;-67
2021/12/21 02:45:41;;;;;;;7.83;6.10;;;;;;;5.24;75.29;101813.47;5033239;28;20184;-68
2021/12/21 02:48:06;;;;;;;6.07;5.47;;;;;;;5.30;74.80;101808.06;5032944;28;20529;-67
2021/12/21 02:50:33;;;;;;;8.73;6.10;;;;;;;4.44;77.21;101806.63;4998740;28;20207;-67
2021/12/21 02:53:02;;;;;;;9.13;5.90;;;;;;;4.62;77.47;101809.94;5032781;28;20196;-67
2021/12/21 02:55:27;;;;;;;11.07;6.23;;;;;;;4.91;76.84;101819.25;5032932;28;20177;-67
2021/12/21 02:57:52;;;;;;;6.57;5.70;;;;;;;5.23;75.19;101814.38;5032797;28;20250;-68
2021/12/21 03:00:18;;;;;;;7.07;5.80;;;;;;;5.12;75.81;101807.47;5015228;28;20192;-67
2021/12/21 03:02:43;;;;;;;8.33;6.50;;;;;;;5.34;75.74;101823.00;5032835;28;20180;-67
2021/12/21 03:05:09;;;;;;;7.83;6.43;;;;;;;5.61;74.32;101811.09;5016004;28;20182;-67
2021/12/21 03:08:04;;;;;;;9.57;6.10;;;;;;;5.55;74.01;101803.22;5032719;28;20195;-68
2021/12/21 03:10:28;;;;;;;9.97;6.37;;;;;;;5.44;74.33;101804.31;5037604;28;20240;-68
2021/12/21 03:15:38;;;;;;;7.23;5.80;;;;;;;5.34;74.61;101801.81;5017946;28;20167;-67
2021/12/21 03:18:03;;;;;;;9.40;6.00;;;;;;;5.16;75.71;101802.09;5035044;28;20549;-67
2021/12/21 03:20:28;;;;;;;8.23;6.13;;;;;;;5.27;75.14;101799.31;5036379;28;20672;-67
2021/12/21 03:22:54;;;;;;;7.93;6.17;;;;;;;5.25;74.32;101791.38;5036044;28;20183;-67
2021/12/21 03:25:19;;;;;;;8.83;6.27;;;;;;;5.31;74.46;101793.06;5036262;28;20254;-67
2021/12/21 03:27:44;;;;;;;6.87;6.17;;;;;;;5.30;75.05;101796.59;5036338;28;20200;-67
2021/12/21 03:30:12;;;;;;;8.17;6.03;;;;;;;5.38;74.62;101786.75;5018707;28;20239;-67
2021/12/21 03:32:37;;;;;;;8.07;6.17;;;;;;;5.28;74.08;101782.53;5035890;28;20176;-67
2021/12/21 03:35:04;;;;;;;10.20;6.90;;;;;;;5.24;74.95;101791.41;5035932;28;20175;-67
2021/12/21 03:37:29;;;;;;;8.17;6.13;;;;;;;5.22;75.02;101787.91;5018167;28;20180;-68
2021/12/21 03:39:55;;;;;;;8.90;6.67;;;;;;;5.21;74.97;101781.75;5036320;28;20196;-68
2021/12/21 03:42:23;;;;;;;8.83;6.70;;;;;;;5.21;74.89;101792.34;5018698;28;20621;-68
2021/12/21 03:44:48;;;;;;;9.27;6.70;;;;;;;5.25;75.16;101796.69;5018407;28;20169;-68
2021/12/21 03:47:16;;;;;;;7.77;6.43;;;;;;;5.25;74.26;101785.22;5035864;28;20200;-68
2021/12/21 03:52:17;;;;;;;7.03;5.57;;;;;;;5.37;74.54;101798.25;5036115;28;20176;-68
2021/12/21 03:54:44;;;;;;;9.23;6.67;;;;;;;5.05;74.76;101790.81;5018007;28;20176;-68
2021/12/21 03:57:09;;;;;;;9.40;6.37;;;;;;;4.99;75.66;101791.78;5036343;28;20183;-68
2021/12/21 03:59:35;;;;;;;7.90;5.80;;;;;;;4.82;76.01;101800.84;5035791;28;20173;-67
2021/12/21 04:02:00;;;;;;;9.33;5.97;;;;;;;4.94;76.17;101792.75;5035361;28;20611;-68
2021/12/21 04:04:26;;;;;;;7.33;6.10;;;;;;;5.14;76.04;101795.94;5035615;28;20184;-67
2021/12/21 04:06:52;;;;;;;9.23;6.50;;;;;;;5.05;74.95;101796.09;5035366;28;20196;-68
2021/12/21 04:09:18;;;;;;;7.73;6.77;;;;;;;4.69;76.13;101798.38;5035404;28;20707;-68
2021/12/21 04:11:43;;;;;;;9.83;6.70;;;;;;;4.87;76.71;101797.25;5035221;28;20207;-67
2021/12/21 04:14:09;;;;;;;7.80;6.20;;;;;;;4.67;76.44;101800.16;5018047;28;20180;-68
2021/12/21 04:16:34;;;;;;;8.50;6.50;;;;;;;4.90;76.62;101806.91;5035212;28;20201;-67
2021/12/21 04:19:00;;;;;;;7.77;6.57;;;;;;;4.99;76.28;101790.91;5035501;28;20659;-68
2021/12/21 04:21:25;;;;;;;8.90;6.87;;;;;;;5.09;75.78;101797.78;5018477;28;20615;-67
2021/12/21 04:23:51;;;;;;;10.83;6.83;;;;;;;5.10;75.27;101799.53;5035496;28;20595;-68
2021/12/21 04:26:17;;;;;;;7.50;6.10;;;;;;;5.21;74.89;101795.00;5035659;28;20185;-68
2021/12/21 04:28:43;;;;;;;7.27;6.17;;;;;;;5.34;74.70;101799.19;5017626;28;20222;-68
2021/12/21 04:31:10;;;;;;;8.43;6.60;;;;;;;5.34;74.61;101793.88;5035218;28;20205;-68
2021/12/21 04:33:35;;;;;;;8.37;6.20;;;;;;;5.24;74.67;101787.00;5017420;28;20260;-68
2021/12/21 04:36:02;;;;;;;9.83;6.73;;;;;;;5.33;75.02;101797.44;5035287;28;20213;-68
2021/12/21 04:38:32;;;;;;;8.47;6.90;;;;;;;5.36;74.92;101795.63;5035203;28;20230;-67
2021/12/21 04:41:06;;;;;;;7.53;6.10;;;;;;;5.38;74.78;101800.00;5018048;28;20204;-68
2021/12/21 04:43:31;;;;;;;8.10;6.30;;;;;;;5.44;74.64;101799.03;5035479;28;20165;-68
2021/12/21 04:45:57;;;;;;;8.97;6.03;;;;;;;5.51;74.64;101798.00;5034540;28;20212;-67
2021/12/21 04:48:22;;;;;;;8.40;6.43;;;;;;;5.55;74.04;101797.94;5034892;28;20722;-67
2021/12/21 04:50:48;;;;;;;7.17;5.93;;;;;;;5.59;73.47;101794.38;5034707;28;20723;-68
2021/12/21 04:53:14;;;;;;;8.13;5.30;;;;;;;5.43;73.50;101782.25;5017166;28;20180;-68
2021/12/21 04:55:39;;;;;;;8.37;5.53;;;;;;;5.34;74.05;101785.94;5017688;28;20212;-68
2021/12/21 04:58:05;;;;;;;8.30;6.07;;;;;;;5.23;74.56;101790.53;5034380;28;20183;-68
2021/12/21 05:00:30;;;;;;;7.30;5.73;;;;;;;5.17;74.54;101787.97;5034353;28;20244;-69
2021/12/21 05:02:56;;;;;;;6.57;5.50;;;;;;;5.23;74.44;101789.66;5034298;28;20177;-69
2021/12/21 05:05:21;;;;;;;7.17;5.40;;;;;;;5.21;74.29;101792.34;5034567;28;20183;-68
2021/12/21 05:07:55;;;;;;;7.40;5.87;;;;;;;5.22;74.72;101796.75;5034482;28;20201;-68
2021/12/21 05:10:20;;;;;;;7.07;5.80;;;;;;;5.28;74.66;101798.41;5017970;28;20211;-68
2021/12/21 05:12:46;;;;;;;7.23;5.53;;;;;;;5.37;74.69;101806.19;5035110;28;20173;-67
2021/12/21 05:15:12;;;;;;;8.50;5.87;;;;;;;5.37;74.37;101792.97;5016876;28;20176;-68
2021/12/21 05:17:37;;;;;;;6.50;4.97;;;;;;;5.38;74.20;101786.75;5033908;28;20187;-64
2021/12/21 05:20:04;;;;;;;7.63;5.37;;;;;;;5.36;74.12;101798.28;5034079;28;20204;-62
2021/12/21 05:22:29;;;;;;;8.47;5.90;;;;;;;5.32;74.10;101798.34;5034474;28;20180;-60
2021/12/21 05:24:55;;;;;;;9.63;7.03;;;;;;;5.51;74.74;101811.25;5034296;28;20649;-60
2021/12/21 05:27:21;;;;;;;8.83;6.23;;;;;;;5.50;74.00;101793.63;5034271;28;20196;-62
2021/12/21 05:29:46;;;;;;;6.97;5.77;;;;;;;5.35;74.04;101792.13;5034130;28;20306;-61
2021/12/21 05:32:11;;;;;;;8.20;6.47;;;;;;;5.38;73.99;101804.41;5033845;28;20177;-61
2021/12/21 05:34:37;;;;;;;10.00;7.00;;;;;;;5.45;73.98;101806.94;5033810;28;20259;-69
2021/12/21 05:37:06;;;;;;;7.37;5.93;;;;;;;5.56;74.50;101820.00;5016567;28;20172;-69
2021/12/21 05:39:40;;;;;;;5.77;5.10;;;;;;;5.63;74.16;101822.53;5033482;28;20192;-69
2021/12/21 05:42:06;;;;;;;8.03;5.37;;;;;;;5.70;73.83;101817.13;5017417;28;20231;-69
2021/12/21 05:44:31;;;;;;;5.87;5.10;;;;;;;5.75;73.40;101810.84;5016281;28;20256;-69
2021/12/21 05:46:57;;;;;;;7.47;4.83;;;;;;;5.80;73.09;101816.94;5033581;28;20202;-69
2021/12/21 05:49:22;;;;;;;6.40;5.00;;;;;;;5.52;73.33;101790.03;5034147;28;20185;-69
2021/12/21 05:51:48;;;;;;;8.20;5.20;;;;;;;5.53;72.86;101793.56;5033279;28;20560;-68
2021/12/21 05:54:15;;;;;;;5.87;4.90;;;;;;;5.50;73.97;101801.56;5033522;28;20252;-68
2021/12/21 05:56:40;;;;;;;6.90;4.80;;;;;;;5.48;73.59;101798.06;5033739;28;20641;-68
2021/12/21 05:59:06;;;;;;;7.37;5.50;;;;;;;5.29;73.88;101800.16;5033332;28;20179;-67
2021/12/21 06:01:32;;;;;;;9.77;6.30;;;;;;;5.39;73.68;101812.34;5015767;28;20203;-68
2021/12/21 06:03:58;;;;;;;8.10;6.10;;;;;;;5.22;74.10;101806.44;5015733;28;20644;-68
2021/12/21 06:06:23;;;;;;;15.23;11.20;;;;;;;5.28;73.94;101796.63;5033316;28;20176;-67
2021/12/21 06:08:51;;;;;;;12.57;10.10;;;;;;;5.11;73.77;101780.13;5015755;28;20247;-68
2021/12/21 06:11:16;;;;;;;10.57;7.70;;;;;;;5.11;75.11;101798.66;5033495;28;20201;-68
2021/12/21 06:26:42;;;;;;;11.53;7.90;;;;;;;5.21;74.64;101808.22;5032851;28;20502;-68
2021/12/21 06:29:08;;;;;;;12.47;8.60;;;;;;;5.27;73.85;101801.94;5015506;28;20183;-68
2021/12/21 06:31:33;;;;;;;11.30;7.60;;;;;;;5.37;73.95;101798.25;5015244;28;20565;-69
2021/12/21 06:33:59;;;;;;;18.50;13.40;;;;;;;5.37;73.07;101789.44;5015555;28;20172;-68
2021/12/21 06:36:24;;;;;;;14.23;9.77;;;;;;;5.33;73.32;101794.78;5033068;28;20176;-69
2021/12/21 06:38:49;;;;;;;10.33;6.53;;;;;;;5.14;73.90;101792.44;5033518;28;20168;-68
2021/12/21 06:41:15;;;;;;;10.27;7.33;;;;;;;5.09;74.21;101797.78;5054265;22;20211;-70
2021/12/21 06:43:40;;;;;;;9.63;6.23;;;;;;;5.21;73.77;101791.47;5019007;28;20547;-70
2021/12/21 06:46:14;;;;;;;10.80;6.23;;;;;;;5.18;73.49;101795.00;5035565;28;20640;-70
2021/12/21 06:51:33;;;;;;;8.83;7.17;;;;;;;5.17;73.67;101795.03;5038361;28;20571;-70
2021/12/21 06:53:58;;;;;;;10.63;5.60;;;;;;;5.01;74.00;101794.41;5024310;28;20163;-70
2021/12/21 06:56:26;;;;;;;15.10;5.93;;;;;;;4.97;74.29;101814.75;5023190;28;20263;-70
2021/12/21 06:58:54;;;;;;;5.90;5.30;;;;;;;5.07;74.02;101807.53;5022509;28;20175;-70
2021/12/21 07:01:20;;;;;;;12.40;5.20;;;;;;;5.03;73.86;101806.72;5039199;28;20202;-70
2021/12/21 07:03:45;;;;;;;6.10;4.70;;;;;;;4.97;73.68;101804.16;5022701;28;20172;-72
2021/12/21 07:06:11;;;;;;;6.13;4.90;;;;;;;4.86;73.73;101798.16;5058454;28;20171;-71
2021/12/21 07:08:51;;;;;;;18.47;6.80;;;;;;;4.80;73.74;101799.97;5040148;28;20341;-70
2021/12/21 07:11:30;;;;;;;5.93;4.50;;;;;;;4.81;74.11;101810.53;5041885;28;20656;-71
2021/12/21 07:19:23;;;;;;;8.17;5.67;;;;;;;4.74;73.49;101797.44;5041958;28;20186;-71
2021/12/21 07:21:48;;;;;;;5.73;4.93;;;;;;;4.65;73.81;101793.13;5039471;28;20195;-70
2021/12/21 07:24:13;;;;;;;7.77;5.60;;;;;;;4.64;73.58;101794.91;5045816;28;20176;-71
2021/12/21 07:26:39;;;;;;;13.53;5.90;;;;;;;4.53;73.88;101788.91;5050911;28;20188;-71
2021/12/21 07:29:04;;;;;;;7.73;6.07;;;;;;;4.64;74.21;101801.97;5035110;28;20175;-70
2021/12/21 07:31:30;;;;;;;6.70;6.03;;;;;;;4.78;74.13;101823.81;5038669;28;20196;-71
2021/12/21 07:33:55;;;;;;;8.27;6.90;;;;;;;4.54;74.95;101827.66;5038498;28;20255;-70
2021/12/21 07:36:21;;;;;;;12.17;8.27;;;;;;;4.75;74.50;101830.91;5021984;28;20603;-71
2021/12/21 07:38:46;;;;;;;14.60;9.83;;;;;;;4.74;74.20;101818.59;5038345;28;20224;-70
2021/12/21 07:41:11;;;;;;;13.03;9.00;;;;;;;4.74;73.94;101818.59;5038348;28;20207;-70
2021/12/21 07:43:37;;;;;;;8.97;7.97;;;;;;;4.85;73.83;101820.22;5021642;28;20180;-71
2021/12/21 07:46:03;;;;;;;7.97;7.10;;;;;;;4.88;73.80;101820.16;5021699;28;20179;-72
2021/12/21 07:48:29;;;;;;;9.80;8.43;;;;;;;4.82;73.61;101806.13;5038964;28;20248;-71
2021/12/21 07:50:55;;;;;;;19.27;10.60;;;;;;;4.50;75.04;101817.16;5022487;28;20290;-70
2021/12/21 07:53:21;;;;;;;13.40;8.10;;;;;;;4.41;75.51;101841.91;5037701;28;20265;-71
2021/12/21 07:55:46;;;;;;;12.53;7.50;;;;;;;4.82;74.12;101841.38;5038089;28;20662;-70
2021/12/21 07:58:12;;;;;;;10.50;8.27;;;;;;;4.92;73.87;101848.31;5038205;28;20168;-69
2021/12/21 08:00:38;;;;;;;16.77;7.60;;;;;;;4.77;72.90;101819.41;5038597;28;20266;-71
2021/12/21 08:03:06;;;;;;;77.77;10.27;;;;;;;4.62;73.88;101835.50;5037359;28;20179;-70
2021/12/21 08:05:34;;;;;;;34.90;8.40;;;;;;;4.76;73.71;101830.00;5021005;28;20254;-71
2021/12/21 08:08:11;;;;;;;43.57;7.37;;;;;;;4.44;73.66;101820.72;5055398;28;20206;-70
2021/12/21 08:10:50;;;;;;;7.77;6.63;;;;;;;4.66;73.69;101831.91;5039426;28;20252;-72
2021/12/21 08:13:16;;;;;;;11.67;8.90;;;;;;;4.71;73.47;101822.16;5040047;28;20160;-71
2021/12/21 08:15:41;;;;;;;8.00;6.70;;;;;;;4.92;73.38;101828.94;5020948;28;20176;-70
2021/12/21 08:18:06;;;;;;;11.90;6.77;;;;;;;4.76;72.43;101812.38;5037618;28;20178;-69
2021/12/21 08:20:32;;;;;;;7.43;6.37;;;;;;;4.80;72.53;101811.44;5038026;28;20663;-71
2021/12/21 08:22:58;;;;;;;6.80;5.93;;;;;;;4.80;72.94;101821.13;5038526;28;20199;-72
2021/12/21 08:25:25;;;;;;;7.20;5.97;;;;;;;4.91;72.32;101819.25;5041919;28;20230;-71
2021/12/21 08:27:52;;;;;;;11.77;6.80;;;;;;;4.60;72.43;101808.19;5038170;28;20203;-72
2021/12/21 08:30:17;;;;;;;8.37;6.97;;;;;;;4.59;75.28;101865.50;5055510;28;20255;-69
2021/12/21 08:32:43;;;;;;;9.30;6.90;;;;;;;4.91;73.45;101832.47;5021251;28;20566;-71
2021/12/21 08:35:08;;;;;;;9.30;6.13;;;;;;;5.07;72.39;101834.00;5038841;28;20171;-69
2021/12/21 08:37:35;;;;;;;18.37;7.53;;;;;;;5.11;72.86;101833.06;5037523;28;20258;-71
2021/12/21 08:40:00;;;;;;;11.07;6.97;;;;;;;4.54;73.94;101851.47;5021222;28;20182;-71
2021/12/21 08:42:27;;;;;;;65.37;9.27;;;;;;;4.16;75.16;101843.94;5037377;28;20298;-71
2021/12/21 08:44:52;;;;;;;11.03;7.60;;;;;;;5.10;73.50;101846.31;5037429;28;20164;-71
2021/12/21 08:47:17;;;;;;;8.83;7.13;;;;;;;5.39;71.78;101841.47;5037247;28;20207;-70
2021/12/21 08:49:42;;;;;;;12.63;8.83;;;;;;;5.52;71.44;101843.00;5037118;28;20636;-71
2021/12/21 08:52:08;;;;;;;81.33;9.23;;;;;;;4.77;71.76;101816.78;5037166;28;20198;-70
2021/12/21 08:54:33;;;;;;;32.13;7.07;;;;;;;5.08;72.03;101833.09;5055270;28;20175;-71
2021/12/21 08:56:58;;;;;;;9.03;6.70;;;;;;;5.04;72.78;101844.63;5037000;28;20178;-73
2021/12/21 08:59:24;;;;;;;41.87;7.03;;;;;;;4.88;72.04;101832.53;5037358;28;20174;-70
2021/12/21 09:01:51;;;;;;;8.73;6.47;;;;;;;5.18;71.69;101837.34;5054451;28;20199;-72
2021/12/21 09:04:18;;;;;;;8.70;6.80;;;;;;;5.26;72.05;101843.44;5036619;28;20229;-70
2021/12/21 09:06:44;;;;;;;63.60;8.20;;;;;;;4.44;73.27;101826.00;5054463;28;20172;-71
2021/12/21 09:09:09;;;;;;;6.43;5.13;;;;;;;4.26;73.89;101850.00;5054687;28;20582;-70
2021/12/21 09:11:35;;;;;;;10.47;6.27;;;;;;;4.83;73.54;101860.78;5054907;28;20195;-70
2021/12/21 09:14:00;;;;;;;9.00;6.80;;;;;;;5.09;72.33;101841.91;5036816;28;20172;-71
2021/12/21 09:16:26;;;;;;;27.93;7.10;;;;;;;4.99;72.67;101842.03;5036538;28;20183;-70
2021/12/21 09:18:51;;;;;;;10.37;7.20;;;;;;;5.31;72.25;101865.41;5020148;28;20609;-71
2021/12/21 09:21:16;;;;;;;7.73;6.50;;;;;;;5.34;71.79;101848.59;5036777;28;20206;-70
2021/12/21 09:23:42;;;;;;;12.87;7.80;;;;;;;5.38;72.44;101866.19;5054398;28;20226;-71
2021/12/21 09:26:07;;;;;;;9.20;6.83;;;;;;;5.56;71.93;101865.00;5036494;28;20187;-69
2021/12/21 09:28:33;;;;;;;18.27;7.40;;;;;;;5.49;71.20;101864.25;5054381;28;20722;-71
2021/12/21 09:30:58;;;;;;;56.53;10.23;;;;;;;4.83;72.35;101835.22;5036427;28;20220;-73
2021/12/21 09:33:24;;;;;;;105.30;9.03;;;;;;;4.76;73.44;101856.47;5054005;28;20171;-70
2021/12/21 09:35:51;;;;;;;24.27;5.70;;;;;;;5.04;72.56;101868.44;5036308;28;20192;-71
2021/12/21 09:38:16;;;;;;;10.60;5.63;;;;;;;5.23;72.95;101869.94;5036406;28;20248;-71
2021/12/21 09:40:42;;;;;;;28.27;6.47;;;;;;;4.94;73.73;101861.53;5054108;28;20694;-72
2021/12/21 09:43:08;;;;;;;8.80;5.50;;;;;;;5.40;73.38;101895.28;5019967;28;20693;-70
2021/12/21 09:45:34;;;;;;;6.27;5.30;;;;;;;5.50;72.82;101888.94;5036420;28;20195;-71
2021/12/21 09:48:00;;;;;;;14.50;5.80;;;;;;;5.52;72.71;101877.44;5036312;28;20679;-70
2021/12/21 09:50:25;;;;;;;6.80;5.70;;;;;;;5.51;72.51;101880.09;5036931;28;20267;-71
2021/12/21 09:52:52;;;;;;;166.83;10.70;;;;;;;4.71;73.23;101864.47;5036313;28;20249;-71
2021/12/21 09:55:19;;;;;;;9.23;4.53;;;;;;;4.87;74.32;101900.41;5019715;28;20507;-70
2021/12/21 09:57:45;;;;;;;11.30;6.20;;;;;;;4.98;74.40;101895.88;5019715;28;20163;-71
2021/12/21 10:00:17;;;;;;;10.80;6.10;;;;;;;5.09;72.51;101871.91;5036075;28;20263;-71
2021/12/21 10:02:43;;;;;;;11.53;4.40;;;;;;;5.17;71.88;101872.66;5036278;28;20225;-70
2021/12/21 10:05:12;;;;;;;5.57;4.80;;;;;;;5.48;71.86;101896.91;5038798;28;20183;-71
2021/12/21 10:07:37;;;;;;;6.37;5.40;;;;;;;5.21;72.46;101882.34;5037359;28;20196;-72
2021/12/21 10:10:09;;;;;;;9.30;5.73;;;;;;;5.25;72.74;101884.03;5057123;28;20203;-71
2021/12/21 10:12:40;;;;;;;22.80;5.53;;;;;;;5.05;72.60;101880.78;5022797;28;20254;-72
2021/12/21 10:15:28;;;;;;;5.70;4.20;;;;;;;5.41;72.79;101903.22;5038878;28;20164;-71
2021/12/21 10:18:00;;;;;;;6.80;5.27;;;;;;;5.68;71.65;101904.56;5038634;28;20266;-71
2021/12/21 10:20:45;;;;;;;6.67;5.07;;;;;;;5.71;70.87;101883.31;5024017;28;20160;-72
2021/12/21 10:23:17;;;;;;;9.10;4.77;;;;;;;5.74;70.59;101880.63;5039023;28;20163;-71
2021/12/21 10:25:49;;;;;;;10.47;8.03;;;;;;;5.73;71.13;101886.81;5021502;28;20179;-72
2021/12/21 10:28:35;;;;;;;7.57;5.23;;;;;;;5.42;72.03;101891.72;5058251;28;20192;-71
2021/12/21 10:31:03;;;;;;;10.77;6.03;;;;;;;5.61;71.83;101900.28;5040248;28;20195;-72
2021/12/21 10:33:29;;;;;;;10.10;4.77;;;;;;;5.44;72.22;101897.00;5040815;28;20722;-71
2021/12/21 10:35:56;;;;;;;5.93;4.90;;;;;;;5.70;72.31;101901.91;5039934;28;20175;-71
2021/12/21 10:38:34;;;;;;;6.73;4.97;;;;;;;5.31;72.61;101891.88;5039815;28;20180;-71
2021/12/21 10:41:08;;;;;;;7.10;5.23;;;;;;;5.80;73.02;101922.03;5039498;28;20294;-71
2021/12/21 10:43:33;;;;;;;30.07;5.60;;;;;;;4.91;74.25;101896.84;5039832;28;20168;-73
2021/12/21 10:45:58;;;;;;;81.33;8.10;;;;;;;5.03;73.91;101886.09;5023468;28;20566;-70
2021/12/21 10:48:24;;;;;;;6.43;5.47;;;;;;;5.45;73.73;101896.09;5039977;28;20601;-69
2021/12/21 10:50:49;;;;;;;6.70;5.23;;;;;;;5.43;73.31;101892.59;5023673;28;20310;-70
2021/12/21 10:53:24;;;;;;;100.00;9.87;;;;;;;4.15;75.72;101879.19;5023473;28;20729;-71
2021/12/21 10:56:07;;;;;;;25.43;6.30;;;;;;;5.27;75.38;101900.78;5043320;28;20253;-71
2021/12/21 10:58:38;;;;;;;12.37;5.53;;;;;;;5.28;75.21;101891.06;5045661;28;20156;-71
2021/12/21 11:01:05;;;;;;;9.30;5.97;;;;;;;5.27;75.25;101891.94;5047708;28;20196;-71
2021/12/21 11:03:49;;;;;;;103.70;9.77;;;;;;;5.13;74.92;101873.59;5023539;28;20647;-71
2021/12/21 11:06:25;;;;;;;14.60;5.37;;;;;;;5.20;75.61;101888.53;5040237;28;20152;-71
2021/12/21 11:08:55;;;;;;;58.83;9.10;;;;;;;4.90;74.05;101873.06;5039282;28;20237;-69
2021/12/21 11:11:24;;;;;;;27.57;6.90;;;;;;;4.47;76.57;101896.50;5056877;28;20283;-70
2021/12/21 11:13:58;;;;;;;22.60;6.70;;;;;;;5.05;76.26;101907.22;5039682;28;20639;-69
2021/12/21 11:16:35;;;;;;;47.90;9.07;;;;;;;4.83;76.53;101887.22;5038741;28;20178;-70
2021/12/21 11:19:00;;;;;;;31.70;7.70;;;;;;;4.64;76.29;101876.00;5022279;28;20159;-71
2021/12/21 11:21:26;;;;;;;8.37;6.40;;;;;;;5.02;75.89;101867.59;5039051;28;20348;-70
2021/12/21 11:23:51;;;;;;;10.20;6.30;;;;;;;5.36;75.16;101880.34;5038837;28;20177;-70
2021/12/21 11:26:16;;;;;;;8.07;6.20;;;;;;;5.60;75.64;101880.88;5039026;28;20700;-71
2021/12/21 11:28:42;;;;;;;8.33;6.77;;;;;;;5.62;75.06;101897.59;5056931;28;20192;-70
2021/12/21 11:31:08;;;;;;;22.27;7.50;;;;;;;5.22;74.90;101872.63;5022487;28;20196;-71
2021/12/21 11:33:41;;;;;;;18.20;6.03;;;;;;;5.50;75.35;101902.19;5022125;28;20175;-70
2021/12/21 11:38:51;;;;;;;36.70;8.27;;;;;;;5.17;75.76;101875.31;5040809;28;20626;-72
2021/12/21 11:41:16;;;;;;;19.27;6.93;;;;;;;5.27;75.91;101881.38;5038050;28;20215;-72
2021/12/21 11:44:09;;;;;;;9.40;5.83;;;;;;;5.84;75.73;101905.19;5038950;28;20260;-72
2021/12/21 11:46:54;;;;;;;12.10;6.97;;;;;;;5.46;74.79;101874.88;5038398;28;20239;-73
2021/12/21 11:49:41;;;;;;;13.87;5.67;;;;;;;5.51;75.13;101874.81;5038311;28;20160;-72
2021/12/21 11:52:09;;;;;;;18.23;6.20;;;;;;;5.57;75.67;101880.88;5038595;28;20200;-70
2021/12/21 11:54:43;;;;;;;25.27;6.60;;;;;;;5.18;74.91;101855.00;5038250;28;20226;-70
2021/12/21 11:57:08;;;;;;;22.13;6.10;;;;;;;5.27;75.18;101861.06;5038511;28;20610;-70
2021/12/21 11:59:34;;;;;;;15.17;6.60;;;;;;;5.34;75.42;101868.00;5038102;28;20187;-70
2021/12/21 12:02:01;;;;;;;8.93;6.33;;;;;;;5.33;75.34;101876.84;5055933;28;20675;-70
2021/12/21 12:04:27;;;;;;;31.17;16.30;;;;;;;5.58;76.10;101881.78;5038731;28;20255;-72
2021/12/21 12:06:54;;;;;;;22.03;7.83;;;;;;;5.25;74.20;101852.28;5038123;28;20191;-72
2021/12/21 12:09:31;;;;;;;45.13;9.77;;;;;;;5.43;75.44;101871.41;5038224;28;20627;-71
2021/12/21 12:12:13;;;;;;;116.40;12.27;;;;;;;5.33;75.27;101860.97;5037859;28;20195;-71
2021/12/21 12:14:41;;;;;;;14.30;6.27;;;;;;;5.54;75.70;101877.41;5037921;28;20179;-71
2021/12/21 12:17:11;;;;;;;27.37;6.80;;;;;;;5.37;74.96;101872.38;5038081;28;20168;-69
2021/12/21 12:19:43;;;;;;;8.57;6.37;;;;;;;5.41;76.18;101883.78;5056221;28;20175;-72
2021/12/21 12:22:12;;;;;;;10.43;6.70;;;;;;;5.49;76.09;101888.06;5022585;28;20195;-72
2021/12/21 12:24:40;;;;;;;8.83;6.33;;;;;;;5.54;75.30;101877.41;5037907;28;20168;-70
2021/12/21 12:27:10;;;;;;;70.30;9.23;;;;;;;5.47;76.47;101879.28;5055397;28;20544;-72
2021/12/21 12:29:53;;;;;;;7.37;5.53;;;;;;;5.56;75.96;101868.53;5037935;28;20168;-71